<?xml version="1.0" encoding="UTF-8" standalone="no" ?>
<gpx xmlns="http://www.topografix.com/GPX/1/1" xmlns:xsi="http://www.w3.org/2001/XMLSchema-instance" xsi:schemaLocation="http://www.topografix.com/GPX/1/1 http://www.topografix.com/GPX/1/1/gpx.xsd" version="1.1" creator="VisuGPX - https://www.visugpx.com">
  <metadata>
    <name>Loperhet_Rostriviec_16km</name>
    <desc><![CDATA[gnerando idor:8144461]]></desc>
  </metadata>
  <trk>
    <name><![CDATA[Loperhet_Rostiviec_16.1km-8144461]]></name>
    <extensions>
      <line xmlns="http://www.topografix.com/GPX/gpx_style/0/2">
        <color>0000FF</color>
        <width>4</width>
      </line>
    </extensions>
    <trkseg>
      <trkpt lat="48.35619" lon="-4.29767">
        <ele>2</ele>
        <time>2023-11-05T10:59:17Z</time>
      </trkpt>
      <trkpt lat="48.35888" lon="-4.30265">
        <ele>23</ele>
        <time>2023-11-05T11:08:46Z</time>
      </trkpt>
      <trkpt lat="48.36094" lon="-4.30226">
        <ele>28</ele>
        <time>2023-11-05T11:13:23Z</time>
      </trkpt>
      <trkpt lat="48.36356" lon="-4.30046">
        <ele>41</ele>
        <time>2023-11-05T11:19:47Z</time>
      </trkpt>
      <trkpt lat="48.36335" lon="-4.30415">
        <ele>36</ele>
        <time>2023-11-05T11:25:16Z</time>
      </trkpt>
      <trkpt lat="48.36335" lon="-4.31071">
        <ele>25</ele>
        <time>2023-11-05T11:34:57Z</time>
      </trkpt>
      <trkpt lat="48.36176" lon="-4.31511">
        <ele>16</ele>
        <time>2023-11-05T11:42:22Z</time>
      </trkpt>
      <trkpt lat="48.36155" lon="-4.31649">
        <ele>10</ele>
        <time>2023-11-05T11:44:27Z</time>
      </trkpt>
      <trkpt lat="48.3601" lon="-4.31904">
        <ele>3</ele>
        <time>2023-11-05T11:49:25Z</time>
      </trkpt>
      <trkpt lat="48.35946" lon="-4.31913">
        <ele>3</ele>
        <time>2023-11-05T11:50:50Z</time>
      </trkpt>
      <trkpt lat="48.35846" lon="-4.31964">
        <ele>4</ele>
        <time>2023-11-05T11:53:11Z</time>
      </trkpt>
      <trkpt lat="48.35754" lon="-4.32089">
        <ele>4</ele>
        <time>2023-11-05T11:55:57Z</time>
      </trkpt>
      <trkpt lat="48.35643" lon="-4.32207">
        <ele>5</ele>
        <time>2023-11-05T11:58:58Z</time>
      </trkpt>
      <trkpt lat="48.35475" lon="-4.32404">
        <ele>6</ele>
        <time>2023-11-05T12:03:42Z</time>
      </trkpt>
      <trkpt lat="48.35314" lon="-4.32599">
        <ele>5</ele>
        <time>2023-11-05T12:08:18Z</time>
      </trkpt>
      <trkpt lat="48.35187" lon="-4.32709">
        <ele>3</ele>
        <time>2023-11-05T12:11:34Z</time>
      </trkpt>
      <trkpt lat="48.35057" lon="-4.32606">
        <ele>6</ele>
        <time>2023-11-05T12:14:50Z</time>
      </trkpt>
      <trkpt lat="48.34963" lon="-4.32584">
        <ele>6</ele>
        <time>2023-11-05T12:16:57Z</time>
      </trkpt>
      <trkpt lat="48.34883" lon="-4.32704">
        <ele>8</ele>
        <time>2023-11-05T12:19:27Z</time>
      </trkpt>
      <trkpt lat="48.34828" lon="-4.32737">
        <ele>9</ele>
        <time>2023-11-05T12:20:46Z</time>
      </trkpt>
      <trkpt lat="48.34813" lon="-4.32947">
        <ele>4</ele>
        <time>2023-11-05T12:23:54Z</time>
      </trkpt>
      <trkpt lat="48.34731" lon="-4.33063">
        <ele>3</ele>
        <time>2023-11-05T12:26:24Z</time>
      </trkpt>
      <trkpt lat="48.34619" lon="-4.3311">
        <ele>3</ele>
        <time>2023-11-05T12:28:59Z</time>
      </trkpt>
      <trkpt lat="48.34517" lon="-4.33061">
        <ele>5</ele>
        <time>2023-11-05T12:31:22Z</time>
      </trkpt>
      <trkpt lat="48.34646" lon="-4.33086">
        <ele>4</ele>
        <time>2023-11-05T12:34:16Z</time>
      </trkpt>
      <trkpt lat="48.34674" lon="-4.33033">
        <ele>5</ele>
        <time>2023-11-05T12:35:16Z</time>
      </trkpt>
      <trkpt lat="48.34651" lon="-4.32955">
        <ele>7</ele>
        <time>2023-11-05T12:36:31Z</time>
      </trkpt>
      <trkpt lat="48.34592" lon="-4.32837">
        <ele>10</ele>
        <time>2023-11-05T12:38:42Z</time>
      </trkpt>
      <trkpt lat="48.34591" lon="-4.32707">
        <ele>12</ele>
        <time>2023-11-05T12:40:38Z</time>
      </trkpt>
      <trkpt lat="48.34665" lon="-4.32616">
        <ele>13</ele>
        <time>2023-11-05T12:42:45Z</time>
      </trkpt>
      <trkpt lat="48.34585" lon="-4.32462">
        <ele>25</ele>
        <time>2023-11-05T12:45:38Z</time>
      </trkpt>
      <trkpt lat="48.34383" lon="-4.32629">
        <ele>33</ele>
        <time>2023-11-05T12:50:46Z</time>
      </trkpt>
      <trkpt lat="48.34368" lon="-4.32702">
        <ele>28</ele>
        <time>2023-11-05T12:51:54Z</time>
      </trkpt>
      <trkpt lat="48.34316" lon="-4.3282">
        <ele>23</ele>
        <time>2023-11-05T12:53:59Z</time>
      </trkpt>
      <trkpt lat="48.34172" lon="-4.32885">
        <ele>20</ele>
        <time>2023-11-05T12:57:20Z</time>
      </trkpt>
      <trkpt lat="48.3409" lon="-4.32945">
        <ele>11</ele>
        <time>2023-11-05T12:59:22Z</time>
      </trkpt>
      <trkpt lat="48.34047" lon="-4.32882">
        <ele>13</ele>
        <time>2023-11-05T13:00:42Z</time>
      </trkpt>
      <trkpt lat="48.34103" lon="-4.32915">
        <ele>15</ele>
        <time>2023-11-05T13:02:02Z</time>
      </trkpt>
      <trkpt lat="48.34156" lon="-4.32917">
        <ele>14</ele>
        <time>2023-11-05T13:03:13Z</time>
      </trkpt>
      <trkpt lat="48.34313" lon="-4.32795">
        <ele>25</ele>
        <time>2023-11-05T13:07:09Z</time>
      </trkpt>
      <trkpt lat="48.34384" lon="-4.32683">
        <ele>28</ele>
        <time>2023-11-05T13:09:26Z</time>
      </trkpt>
      <trkpt lat="48.34397" lon="-4.32595">
        <ele>34</ele>
        <time>2023-11-05T13:10:46Z</time>
      </trkpt>
      <trkpt lat="48.34491" lon="-4.32535">
        <ele>29</ele>
        <time>2023-11-05T13:13:02Z</time>
      </trkpt>
      <trkpt lat="48.34435" lon="-4.32273">
        <ele>35</ele>
        <time>2023-11-05T13:17:06Z</time>
      </trkpt>
      <trkpt lat="48.3443" lon="-4.32074">
        <ele>21</ele>
        <time>2023-11-05T13:20:03Z</time>
      </trkpt>
      <trkpt lat="48.34384" lon="-4.31958">
        <ele>15</ele>
        <time>2023-11-05T13:22:03Z</time>
      </trkpt>
      <trkpt lat="48.34331" lon="-4.31908">
        <ele>10</ele>
        <time>2023-11-05T13:23:26Z</time>
      </trkpt>
      <trkpt lat="48.34331" lon="-4.317">
        <ele>6</ele>
        <time>2023-11-05T13:26:31Z</time>
      </trkpt>
      <trkpt lat="48.3428" lon="-4.31582">
        <ele>5</ele>
        <time>2023-11-05T13:28:35Z</time>
      </trkpt>
      <trkpt lat="48.34274" lon="-4.31441">
        <ele>5</ele>
        <time>2023-11-05T13:30:41Z</time>
      </trkpt>
      <trkpt lat="48.34385" lon="-4.31097">
        <ele>7</ele>
        <time>2023-11-05T13:36:20Z</time>
      </trkpt>
      <trkpt lat="48.34348" lon="-4.30941">
        <ele>5</ele>
        <time>2023-11-05T13:38:47Z</time>
      </trkpt>
      <trkpt lat="48.34377" lon="-4.3061">
        <ele>8</ele>
        <time>2023-11-05T13:43:43Z</time>
      </trkpt>
      <trkpt lat="48.34415" lon="-4.30198">
        <ele>7</ele>
        <time>2023-11-05T13:49:52Z</time>
      </trkpt>
      <trkpt lat="48.34443" lon="-4.30142">
        <ele>5</ele>
        <time>2023-11-05T13:50:54Z</time>
      </trkpt>
      <trkpt lat="48.34508" lon="-4.30138">
        <ele>5</ele>
        <time>2023-11-05T13:52:21Z</time>
      </trkpt>
      <trkpt lat="48.34599" lon="-4.30185">
        <ele>9</ele>
        <time>2023-11-05T13:54:29Z</time>
      </trkpt>
      <trkpt lat="48.34627" lon="-4.30256">
        <ele>8</ele>
        <time>2023-11-05T13:55:43Z</time>
      </trkpt>
      <trkpt lat="48.34588" lon="-4.30453">
        <ele>11</ele>
        <time>2023-11-05T13:58:45Z</time>
      </trkpt>
      <trkpt lat="48.34587" lon="-4.30516">
        <ele>12</ele>
        <time>2023-11-05T13:59:41Z</time>
      </trkpt>
      <trkpt lat="48.34525" lon="-4.30687">
        <ele>19</ele>
        <time>2023-11-05T14:02:33Z</time>
      </trkpt>
      <trkpt lat="48.34518" lon="-4.30829">
        <ele>22</ele>
        <time>2023-11-05T14:04:40Z</time>
      </trkpt>
      <trkpt lat="48.34541" lon="-4.30926">
        <ele>24</ele>
        <time>2023-11-05T14:06:11Z</time>
      </trkpt>
      <trkpt lat="48.34557" lon="-4.31119">
        <ele>26</ele>
        <time>2023-11-05T14:09:04Z</time>
      </trkpt>
      <trkpt lat="48.34615" lon="-4.31215">
        <ele>28</ele>
        <time>2023-11-05T14:10:59Z</time>
      </trkpt>
      <trkpt lat="48.34615" lon="-4.31456">
        <ele>37</ele>
        <time>2023-11-05T14:14:32Z</time>
      </trkpt>
      <trkpt lat="48.34674" lon="-4.3161">
        <ele>41</ele>
        <time>2023-11-05T14:17:10Z</time>
      </trkpt>
      <trkpt lat="48.34813" lon="-4.31732">
        <ele>46</ele>
        <time>2023-11-05T14:20:45Z</time>
      </trkpt>
      <trkpt lat="48.34906" lon="-4.31831">
        <ele>44</ele>
        <time>2023-11-05T14:23:17Z</time>
      </trkpt>
      <trkpt lat="48.34926" lon="-4.31732">
        <ele>44</ele>
        <time>2023-11-05T14:24:49Z</time>
      </trkpt>
      <trkpt lat="48.34976" lon="-4.31713">
        <ele>41</ele>
        <time>2023-11-05T14:25:57Z</time>
      </trkpt>
      <trkpt lat="48.35047" lon="-4.31483">
        <ele>38</ele>
        <time>2023-11-05T14:29:42Z</time>
      </trkpt>
      <trkpt lat="48.34977" lon="-4.31353">
        <ele>35</ele>
        <time>2023-11-05T14:32:11Z</time>
      </trkpt>
      <trkpt lat="48.34962" lon="-4.31241">
        <ele>32</ele>
        <time>2023-11-05T14:33:52Z</time>
      </trkpt>
      <trkpt lat="48.35036" lon="-4.31183">
        <ele>38</ele>
        <time>2023-11-05T14:35:43Z</time>
      </trkpt>
      <trkpt lat="48.35106" lon="-4.30998">
        <ele>39</ele>
        <time>2023-11-05T14:38:52Z</time>
      </trkpt>
      <trkpt lat="48.35191" lon="-4.30895">
        <ele>32</ele>
        <time>2023-11-05T14:41:18Z</time>
      </trkpt>
      <trkpt lat="48.35317" lon="-4.3052">
        <ele>4</ele>
        <time>2023-11-05T14:47:30Z</time>
      </trkpt>
      <trkpt lat="48.35374" lon="-4.30494">
        <ele>2</ele>
        <time>2023-11-05T14:48:50Z</time>
      </trkpt>
      <trkpt lat="48.35425" lon="-4.30526">
        <ele>4</ele>
        <time>2023-11-05T14:50:04Z</time>
      </trkpt>
      <trkpt lat="48.35482" lon="-4.30413">
        <ele>6</ele>
        <time>2023-11-05T14:52:09Z</time>
      </trkpt>
      <trkpt lat="48.35519" lon="-4.30468">
        <ele>9</ele>
        <time>2023-11-05T14:53:19Z</time>
      </trkpt>
      <trkpt lat="48.35575" lon="-4.30378">
        <ele>12</ele>
        <time>2023-11-05T14:55:08Z</time>
      </trkpt>
      <trkpt lat="48.35901" lon="-4.30284">
        <ele>25</ele>
        <time>2023-11-05T15:02:31Z</time>
      </trkpt>
      <trkpt lat="48.35629" lon="-4.2981">
        <ele>3</ele>
        <time>2023-11-05T15:11:47Z</time>
      </trkpt>
      <trkpt lat="48.35568" lon="-4.29595">
        <ele>5</ele>
        <time>2023-11-05T15:15:14Z</time>
      </trkpt>
      <trkpt lat="48.35652" lon="-4.29501">
        <ele>9</ele>
        <time>2023-11-05T15:17:34Z</time>
      </trkpt>
      <trkpt lat="48.35689" lon="-4.29321">
        <ele>17</ele>
        <time>2023-11-05T15:20:21Z</time>
      </trkpt>
      <trkpt lat="48.35769" lon="-4.29447">
        <ele>14</ele>
        <time>2023-11-05T15:22:55Z</time>
      </trkpt>
      <trkpt lat="48.3588" lon="-4.29295">
        <ele>32</ele>
        <time>2023-11-05T15:26:15Z</time>
      </trkpt>
      <trkpt lat="48.36031" lon="-4.29228">
        <ele>41</ele>
        <time>2023-11-05T15:29:45Z</time>
      </trkpt>
      <trkpt lat="48.36309" lon="-4.29123">
        <ele>47</ele>
        <time>2023-11-05T15:36:08Z</time>
      </trkpt>
      <trkpt lat="48.36342" lon="-4.28913">
        <ele>49</ele>
        <time>2023-11-05T15:39:19Z</time>
      </trkpt>
      <trkpt lat="48.36118" lon="-4.28737">
        <ele>40</ele>
        <time>2023-11-05T15:44:56Z</time>
      </trkpt>
      <trkpt lat="48.3591" lon="-4.28544">
        <ele>20</ele>
        <time>2023-11-05T15:50:23Z</time>
      </trkpt>
      <trkpt lat="48.3589" lon="-4.28449">
        <ele>16</ele>
        <time>2023-11-05T15:51:51Z</time>
      </trkpt>
      <trkpt lat="48.35766" lon="-4.28293">
        <ele>17</ele>
        <time>2023-11-05T15:55:27Z</time>
      </trkpt>
      <trkpt lat="48.35716" lon="-4.28381">
        <ele>9</ele>
        <time>2023-11-05T15:57:09Z</time>
      </trkpt>
      <trkpt lat="48.35655" lon="-4.28647">
        <ele>7</ele>
        <time>2023-11-05T16:01:19Z</time>
      </trkpt>
      <trkpt lat="48.35559" lon="-4.29168">
        <ele>13</ele>
        <time>2023-11-05T16:09:18Z</time>
      </trkpt>
      <trkpt lat="48.35705" lon="-4.29327">
        <ele>18</ele>
        <time>2023-11-05T16:13:19Z</time>
      </trkpt>
      <trkpt lat="48.35639" lon="-4.29492">
        <ele>10</ele>
        <time>2023-11-05T16:16:10Z</time>
      </trkpt>
      <trkpt lat="48.35558" lon="-4.2961">
        <ele>5</ele>
        <time>2023-11-05T16:18:40Z</time>
      </trkpt>
      <trkpt lat="48.35619" lon="-4.29763">
        <ele>2</ele>
        <time>2023-11-05T16:21:18Z</time>
      </trkpt>
      <trkpt lat="48.35618" lon="-4.29763">
        <ele>2</ele>
        <time>2023-11-05T16:21:20Z</time>
      </trkpt>
    </trkseg>
  </trk>
</gpx>